sensor_id;sensor_type;location;lat;lon;timestamp;temperature;humidity
29003;DHT22;16102;57.138;-2.118;2022-11-03T00:01:58;9.60;1.00
29003;DHT22;16102;57.138;-2.118;2022-11-03T00:04:26;9.40;1.00
29003;DHT22;16102;57.138;-2.118;2022-11-03T00:06:54;9.50;99.90
29003;DHT22;16102;57.138;-2.118;2022-11-03T00:09:22;9.50;99.90
29003;DHT22;16102;57.138;-2.118;2022-11-03T00:11:50;9.40;99.90
29003;DHT22;16102;57.138;-2.118;2022-11-03T00:14:18;9.50;79.00
29003;DHT22;16102;57.138;-2.118;2022-11-03T00:16:45;9.50;1.00
29003;DHT22;16102;57.138;-2.118;2022-11-03T00:19:13;9.40;1.00
29003;DHT22;16102;57.138;-2.118;2022-11-03T00:21:42;9.50;1.00
29003;DHT22;16102;57.138;-2.118;2022-11-03T00:24:09;9.50;1.00
29003;DHT22;16102;57.138;-2.118;2022-11-03T00:26:37;9.40;1.00
29003;DHT22;16102;57.138;-2.118;2022-11-03T00:29:12;9.50;1.00
29003;DHT22;16102;57.138;-2.118;2022-11-03T00:31:41;9.60;99.90
29003;DHT22;16102;57.138;-2.118;2022-11-03T00:34:09;9.40;99.90
29003;DHT22;16102;57.138;-2.118;2022-11-03T00:36:39;9.40;99.90
29003;DHT22;16102;57.138;-2.118;2022-11-03T00:39:07;9.40;99.90
29003;DHT22;16102;57.138;-2.118;2022-11-03T00:41:35;9.40;99.90
29003;DHT22;16102;57.138;-2.118;2022-11-03T00:44:02;9.30;99.90
29003;DHT22;16102;57.138;-2.118;2022-11-03T00:46:29;9.30;99.90
29003;DHT22;16102;57.138;-2.118;2022-11-03T00:49:01;9.40;99.90
29003;DHT22;16102;57.138;-2.118;2022-11-03T00:51:28;9.40;99.90
29003;DHT22;16102;57.138;-2.118;2022-11-03T00:53:58;9.20;99.90
29003;DHT22;16102;57.138;-2.118;2022-11-03T00:56:27;9.30;99.90
29003;DHT22;16102;57.138;-2.118;2022-11-03T00:58:57;9.20;99.90
29003;DHT22;16102;57.138;-2.118;2022-11-03T01:01:32;9.50;1.00
29003;DHT22;16102;57.138;-2.118;2022-11-03T01:04:07;9.50;1.00
29003;DHT22;16102;57.138;-2.118;2022-11-03T01:06:53;9.60;1.00
29003;DHT22;16102;57.138;-2.118;2022-11-03T01:09:29;9.70;1.00
29003;DHT22;16102;57.138;-2.118;2022-11-03T01:12:12;9.80;99.90
29003;DHT22;16102;57.138;-2.118;2022-11-03T01:17:16;10.00;99.90
29003;DHT22;16102;57.138;-2.118;2022-11-03T01:19:43;10.00;99.90
29003;DHT22;16102;57.138;-2.118;2022-11-03T01:22:11;9.80;99.90
29003;DHT22;16102;57.138;-2.118;2022-11-03T01:24:39;9.80;99.90
29003;DHT22;16102;57.138;-2.118;2022-11-03T01:27:08;9.80;88.80
29003;DHT22;16102;57.138;-2.118;2022-11-03T01:29:36;9.80;37.70
29003;DHT22;16102;57.138;-2.118;2022-11-03T01:32:03;9.80;6.40
29003;DHT22;16102;57.138;-2.118;2022-11-03T01:34:30;9.80;1.00
29003;DHT22;16102;57.138;-2.118;2022-11-03T01:37:00;9.70;5.80
29003;DHT22;16102;57.138;-2.118;2022-11-03T01:39:28;9.60;1.00
29003;DHT22;16102;57.138;-2.118;2022-11-03T01:41:55;9.60;1.00
29003;DHT22;16102;57.138;-2.118;2022-11-03T01:44:23;9.60;1.00
29003;DHT22;16102;57.138;-2.118;2022-11-03T01:46:52;9.70;1.00
29003;DHT22;16102;57.138;-2.118;2022-11-03T01:49:45;9.50;1.00
29003;DHT22;16102;57.138;-2.118;2022-11-03T01:52:18;9.60;1.00
29003;DHT22;16102;57.138;-2.118;2022-11-03T01:54:50;9.60;1.00
29003;DHT22;16102;57.138;-2.118;2022-11-03T01:57:24;9.60;1.00
29003;DHT22;16102;57.138;-2.118;2022-11-03T01:59:53;9.70;1.00
29003;DHT22;16102;57.138;-2.118;2022-11-03T02:02:24;9.70;1.00
29003;DHT22;16102;57.138;-2.118;2022-11-03T02:04:53;9.70;1.00
29003;DHT22;16102;57.138;-2.118;2022-11-03T02:07:25;9.60;1.00
29003;DHT22;16102;57.138;-2.118;2022-11-03T02:09:54;9.50;1.00
29003;DHT22;16102;57.138;-2.118;2022-11-03T02:12:21;9.50;1.00
29003;DHT22;16102;57.138;-2.118;2022-11-03T02:14:59;9.50;1.00
29003;DHT22;16102;57.138;-2.118;2022-11-03T02:17:29;9.60;1.00
29003;DHT22;16102;57.138;-2.118;2022-11-03T02:20:05;9.50;1.00
29003;DHT22;16102;57.138;-2.118;2022-11-03T02:28:04;9.20;1.00
29003;DHT22;16102;57.138;-2.118;2022-11-03T02:30:41;9.10;1.00
29003;DHT22;16102;57.138;-2.118;2022-11-03T02:33:32;8.90;1.00
29003;DHT22;16102;57.138;-2.118;2022-11-03T02:36:09;8.80;1.00
29003;DHT22;16102;57.138;-2.118;2022-11-03T02:38:44;8.70;1.00
29003;DHT22;16102;57.138;-2.118;2022-11-03T02:41:13;8.60;1.00
29003;DHT22;16102;57.138;-2.118;2022-11-03T02:43:42;8.70;1.00
29003;DHT22;16102;57.138;-2.118;2022-11-03T02:46:12;8.70;1.00
29003;DHT22;16102;57.138;-2.118;2022-11-03T02:48:40;8.70;1.00
29003;DHT22;16102;57.138;-2.118;2022-11-03T02:51:07;8.60;1.00
29003;DHT22;16102;57.138;-2.118;2022-11-03T02:53:43;8.60;1.00
29003;DHT22;16102;57.138;-2.118;2022-11-03T02:56:19;8.70;1.00
29003;DHT22;16102;57.138;-2.118;2022-11-03T02:59:00;8.70;1.00
29003;DHT22;16102;57.138;-2.118;2022-11-03T03:04:04;8.70;1.00
29003;DHT22;16102;57.138;-2.118;2022-11-03T03:06:35;8.70;1.00
29003;DHT22;16102;57.138;-2.118;2022-11-03T03:09:06;8.90;1.00
29003;DHT22;16102;57.138;-2.118;2022-11-03T03:11:40;8.90;1.00
29003;DHT22;16102;57.138;-2.118;2022-11-03T03:14:18;8.90;1.00
29003;DHT22;16102;57.138;-2.118;2022-11-03T03:20:06;8.90;1.00
29003;DHT22;16102;57.138;-2.118;2022-11-03T03:22:42;8.90;1.00
29003;DHT22;16102;57.138;-2.118;2022-11-03T03:27:47;8.70;1.00
29003;DHT22;16102;57.138;-2.118;2022-11-03T03:30:16;8.70;1.00
29003;DHT22;16102;57.138;-2.118;2022-11-03T03:32:47;8.80;1.00
29003;DHT22;16102;57.138;-2.118;2022-11-03T03:35:24;8.80;1.00
29003;DHT22;16102;57.138;-2.118;2022-11-03T03:37:56;8.70;1.00
29003;DHT22;16102;57.138;-2.118;2022-11-03T03:40:36;8.60;1.00
29003;DHT22;16102;57.138;-2.118;2022-11-03T03:43:07;8.60;1.00
29003;DHT22;16102;57.138;-2.118;2022-11-03T03:45:37;8.50;1.00
29003;DHT22;16102;57.138;-2.118;2022-11-03T03:48:05;8.60;1.00
29003;DHT22;16102;57.138;-2.118;2022-11-03T03:50:36;8.50;1.00
29003;DHT22;16102;57.138;-2.118;2022-11-03T03:53:06;8.50;1.00
29003;DHT22;16102;57.138;-2.118;2022-11-03T03:55:40;8.50;1.00
29003;DHT22;16102;57.138;-2.118;2022-11-03T03:58:11;8.50;1.00
29003;DHT22;16102;57.138;-2.118;2022-11-03T04:00:39;8.40;1.00
29003;DHT22;16102;57.138;-2.118;2022-11-03T04:03:15;8.40;1.00
29003;DHT22;16102;57.138;-2.118;2022-11-03T04:05:44;8.30;1.00
29003;DHT22;16102;57.138;-2.118;2022-11-03T04:08:11;8.40;1.00
29003;DHT22;16102;57.138;-2.118;2022-11-03T04:10:38;8.40;1.00
29003;DHT22;16102;57.138;-2.118;2022-11-03T04:13:07;8.30;1.00
29003;DHT22;16102;57.138;-2.118;2022-11-03T04:15:53;8.30;1.00
29003;DHT22;16102;57.138;-2.118;2022-11-03T04:18:23;8.20;1.00
29003;DHT22;16102;57.138;-2.118;2022-11-03T04:21:11;8.20;1.00
29003;DHT22;16102;57.138;-2.118;2022-11-03T04:23:57;8.30;1.00
29003;DHT22;16102;57.138;-2.118;2022-11-03T04:26:27;8.30;1.00
29003;DHT22;16102;57.138;-2.118;2022-11-03T04:28:54;8.30;1.00
29003;DHT22;16102;57.138;-2.118;2022-11-03T04:31:21;8.40;1.00
29003;DHT22;16102;57.138;-2.118;2022-11-03T04:33:48;8.30;1.00
29003;DHT22;16102;57.138;-2.118;2022-11-03T04:36:22;8.30;1.00
29003;DHT22;16102;57.138;-2.118;2022-11-03T04:38:50;8.30;1.00
29003;DHT22;16102;57.138;-2.118;2022-11-03T04:41:23;8.30;1.00
29003;DHT22;16102;57.138;-2.118;2022-11-03T04:43:51;8.20;1.00
29003;DHT22;16102;57.138;-2.118;2022-11-03T04:46:27;8.20;1.00
29003;DHT22;16102;57.138;-2.118;2022-11-03T04:48:58;8.20;1.00
29003;DHT22;16102;57.138;-2.118;2022-11-03T04:51:28;8.10;1.00
29003;DHT22;16102;57.138;-2.118;2022-11-03T04:54:10;8.10;1.00
29003;DHT22;16102;57.138;-2.118;2022-11-03T04:56:39;8.10;1.00
29003;DHT22;16102;57.138;-2.118;2022-11-03T04:59:14;8.10;1.00
29003;DHT22;16102;57.138;-2.118;2022-11-03T05:01:42;8.00;1.00
29003;DHT22;16102;57.138;-2.118;2022-11-03T05:04:15;8.00;1.00
29003;DHT22;16102;57.138;-2.118;2022-11-03T05:06:51;8.00;1.00
29003;DHT22;16102;57.138;-2.118;2022-11-03T05:09:28;8.00;1.00
29003;DHT22;16102;57.138;-2.118;2022-11-03T05:11:55;8.00;1.00
29003;DHT22;16102;57.138;-2.118;2022-11-03T05:14:27;8.00;1.00
29003;DHT22;16102;57.138;-2.118;2022-11-03T05:16:59;8.00;1.00
29003;DHT22;16102;57.138;-2.118;2022-11-03T05:19:33;8.00;1.00
29003;DHT22;16102;57.138;-2.118;2022-11-03T05:22:03;7.90;1.00
29003;DHT22;16102;57.138;-2.118;2022-11-03T05:24:31;7.90;1.00
29003;DHT22;16102;57.138;-2.118;2022-11-03T05:26:59;8.00;1.00
29003;DHT22;16102;57.138;-2.118;2022-11-03T05:29:35;7.90;1.00
29003;DHT22;16102;57.138;-2.118;2022-11-03T05:32:31;7.90;1.00
29003;DHT22;16102;57.138;-2.118;2022-11-03T05:34:56;7.90;1.00
29003;DHT22;16102;57.138;-2.118;2022-11-03T05:37:30;7.80;1.00
29003;DHT22;16102;57.138;-2.118;2022-11-03T05:40:20;7.80;1.00
29003;DHT22;16102;57.138;-2.118;2022-11-03T05:42:50;7.80;1.00
29003;DHT22;16102;57.138;-2.118;2022-11-03T05:45:22;7.90;1.00
29003;DHT22;16102;57.138;-2.118;2022-11-03T05:47:53;7.90;1.00
29003;DHT22;16102;57.138;-2.118;2022-11-03T05:50:26;7.80;1.00
29003;DHT22;16102;57.138;-2.118;2022-11-03T05:56:05;7.70;1.00
29003;DHT22;16102;57.138;-2.118;2022-11-03T05:58:40;7.70;1.00
29003;DHT22;16102;57.138;-2.118;2022-11-03T06:01:34;7.70;1.00
29003;DHT22;16102;57.138;-2.118;2022-11-03T06:04:24;7.70;1.00
29003;DHT22;16102;57.138;-2.118;2022-11-03T06:07:00;7.70;1.00
29003;DHT22;16102;57.138;-2.118;2022-11-03T06:09:28;7.70;1.00
29003;DHT22;16102;57.138;-2.118;2022-11-03T06:12:00;7.60;1.00
29003;DHT22;16102;57.138;-2.118;2022-11-03T06:14:29;7.50;1.00
29003;DHT22;16102;57.138;-2.118;2022-11-03T06:17:00;7.50;1.00
29003;DHT22;16102;57.138;-2.118;2022-11-03T06:19:38;7.40;1.00
29003;DHT22;16102;57.138;-2.118;2022-11-03T06:22:23;7.30;1.00
29003;DHT22;16102;57.138;-2.118;2022-11-03T06:24:59;7.30;1.00
29003;DHT22;16102;57.138;-2.118;2022-11-03T06:27:29;7.30;1.00
29003;DHT22;16102;57.138;-2.118;2022-11-03T06:30:22;7.30;1.00
29003;DHT22;16102;57.138;-2.118;2022-11-03T06:32:50;7.30;1.00
29003;DHT22;16102;57.138;-2.118;2022-11-03T06:35:18;7.20;1.00
29003;DHT22;16102;57.138;-2.118;2022-11-03T06:37:45;7.20;1.00
29003;DHT22;16102;57.138;-2.118;2022-11-03T06:42:39;7.00;1.00
29003;DHT22;16102;57.138;-2.118;2022-11-03T06:45:21;7.00;1.00
29003;DHT22;16102;57.138;-2.118;2022-11-03T06:47:53;6.90;1.00
29003;DHT22;16102;57.138;-2.118;2022-11-03T06:50:31;6.80;1.00
29003;DHT22;16102;57.138;-2.118;2022-11-03T06:53:00;6.70;1.00
29003;DHT22;16102;57.138;-2.118;2022-11-03T06:55:32;6.70;1.00
29003;DHT22;16102;57.138;-2.118;2022-11-03T06:58:17;6.60;1.00
29003;DHT22;16102;57.138;-2.118;2022-11-03T07:00:45;6.60;1.00
29003;DHT22;16102;57.138;-2.118;2022-11-03T07:03:24;6.50;1.00
29003;DHT22;16102;57.138;-2.118;2022-11-03T07:06:03;6.50;1.00
29003;DHT22;16102;57.138;-2.118;2022-11-03T07:08:38;6.60;1.00
29003;DHT22;16102;57.138;-2.118;2022-11-03T07:11:24;6.50;1.00
29003;DHT22;16102;57.138;-2.118;2022-11-03T07:13:55;6.60;1.00
29003;DHT22;16102;57.138;-2.118;2022-11-03T07:16:31;6.60;1.00
29003;DHT22;16102;57.138;-2.118;2022-11-03T07:18:59;6.60;1.00
29003;DHT22;16102;57.138;-2.118;2022-11-03T07:24:38;6.60;1.00
29003;DHT22;16102;57.138;-2.118;2022-11-03T07:27:26;6.50;1.00
29003;DHT22;16102;57.138;-2.118;2022-11-03T07:30:05;6.50;1.00
29003;DHT22;16102;57.138;-2.118;2022-11-03T07:32:38;6.50;1.00
29003;DHT22;16102;57.138;-2.118;2022-11-03T07:37:45;6.50;1.00
29003;DHT22;16102;57.138;-2.118;2022-11-03T07:40:15;6.50;1.00
29003;DHT22;16102;57.138;-2.118;2022-11-03T07:42:44;6.40;1.00
29003;DHT22;16102;57.138;-2.118;2022-11-03T07:45:37;6.40;1.00
29003;DHT22;16102;57.138;-2.118;2022-11-03T07:50:51;6.40;1.00
29003;DHT22;16102;57.138;-2.118;2022-11-03T07:53:35;6.30;1.00
29003;DHT22;16102;57.138;-2.118;2022-11-03T07:56:22;6.30;1.00
29003;DHT22;16102;57.138;-2.118;2022-11-03T07:59:15;6.30;1.00
29003;DHT22;16102;57.138;-2.118;2022-11-03T08:01:48;6.30;1.00
29003;DHT22;16102;57.138;-2.118;2022-11-03T08:04:25;6.30;1.00
29003;DHT22;16102;57.138;-2.118;2022-11-03T08:06:53;6.30;1.00
29003;DHT22;16102;57.138;-2.118;2022-11-03T08:09:20;6.40;1.00
29003;DHT22;16102;57.138;-2.118;2022-11-03T08:11:48;6.50;1.00
29003;DHT22;16102;57.138;-2.118;2022-11-03T08:14:15;6.60;1.00
29003;DHT22;16102;57.138;-2.118;2022-11-03T08:16:42;6.60;1.00
29003;DHT22;16102;57.138;-2.118;2022-11-03T08:19:09;6.50;1.00
29003;DHT22;16102;57.138;-2.118;2022-11-03T08:21:36;6.50;1.00
29003;DHT22;16102;57.138;-2.118;2022-11-03T08:24:04;6.50;1.00
29003;DHT22;16102;57.138;-2.118;2022-11-03T08:26:31;6.60;1.00
29003;DHT22;16102;57.138;-2.118;2022-11-03T08:28:58;6.50;1.00
29003;DHT22;16102;57.138;-2.118;2022-11-03T08:31:25;6.60;1.00
29003;DHT22;16102;57.138;-2.118;2022-11-03T08:33:52;6.60;1.00
29003;DHT22;16102;57.138;-2.118;2022-11-03T08:36:19;6.60;1.00
29003;DHT22;16102;57.138;-2.118;2022-11-03T08:38:46;6.60;1.00
29003;DHT22;16102;57.138;-2.118;2022-11-03T08:41:13;6.70;1.00
29003;DHT22;16102;57.138;-2.118;2022-11-03T08:43:40;6.70;1.00
29003;DHT22;16102;57.138;-2.118;2022-11-03T08:46:07;6.80;1.00
29003;DHT22;16102;57.138;-2.118;2022-11-03T08:48:44;6.80;1.00
29003;DHT22;16102;57.138;-2.118;2022-11-03T08:51:11;6.90;1.00
29003;DHT22;16102;57.138;-2.118;2022-11-03T08:53:40;7.00;1.00
29003;DHT22;16102;57.138;-2.118;2022-11-03T08:56:11;7.10;1.00
29003;DHT22;16102;57.138;-2.118;2022-11-03T08:58:42;7.10;1.00
29003;DHT22;16102;57.138;-2.118;2022-11-03T09:01:09;7.20;1.00
29003;DHT22;16102;57.138;-2.118;2022-11-03T09:03:37;7.30;1.00
29003;DHT22;16102;57.138;-2.118;2022-11-03T09:06:05;7.30;1.00
29003;DHT22;16102;57.138;-2.118;2022-11-03T09:08:32;7.40;1.00
29003;DHT22;16102;57.138;-2.118;2022-11-03T09:11:19;7.40;1.00
29003;DHT22;16102;57.138;-2.118;2022-11-03T09:13:46;7.50;1.00
29003;DHT22;16102;57.138;-2.118;2022-11-03T09:16:13;7.50;1.00
29003;DHT22;16102;57.138;-2.118;2022-11-03T09:18:40;7.60;1.00
29003;DHT22;16102;57.138;-2.118;2022-11-03T09:21:07;7.70;1.00
29003;DHT22;16102;57.138;-2.118;2022-11-03T09:23:34;7.70;1.00
29003;DHT22;16102;57.138;-2.118;2022-11-03T09:26:01;7.80;1.00
29003;DHT22;16102;57.138;-2.118;2022-11-03T09:28:28;7.90;1.00
29003;DHT22;16102;57.138;-2.118;2022-11-03T09:30:55;8.00;1.00
29003;DHT22;16102;57.138;-2.118;2022-11-03T09:33:22;8.20;1.00
29003;DHT22;16102;57.138;-2.118;2022-11-03T09:35:49;8.40;1.00
29003;DHT22;16102;57.138;-2.118;2022-11-03T09:38:16;8.50;1.00
29003;DHT22;16102;57.138;-2.118;2022-11-03T09:40:43;8.50;1.00
29003;DHT22;16102;57.138;-2.118;2022-11-03T09:43:10;8.50;1.00
29003;DHT22;16102;57.138;-2.118;2022-11-03T09:45:38;8.60;1.00
29003;DHT22;16102;57.138;-2.118;2022-11-03T09:48:11;8.60;1.00
29003;DHT22;16102;57.138;-2.118;2022-11-03T09:50:38;8.70;1.00
29003;DHT22;16102;57.138;-2.118;2022-11-03T09:53:11;8.70;1.00
29003;DHT22;16102;57.138;-2.118;2022-11-03T09:55:38;8.80;1.00
29003;DHT22;16102;57.138;-2.118;2022-11-03T09:58:14;8.90;1.00
29003;DHT22;16102;57.138;-2.118;2022-11-03T10:00:42;9.00;1.00
29003;DHT22;16102;57.138;-2.118;2022-11-03T10:03:13;9.20;1.00
29003;DHT22;16102;57.138;-2.118;2022-11-03T10:05:43;9.30;1.00
29003;DHT22;16102;57.138;-2.118;2022-11-03T10:08:36;9.40;1.00
29003;DHT22;16102;57.138;-2.118;2022-11-03T10:11:01;9.40;1.00
29003;DHT22;16102;57.138;-2.118;2022-11-03T10:13:46;9.60;1.00
29003;DHT22;16102;57.138;-2.118;2022-11-03T10:16:17;9.50;1.00
29003;DHT22;16102;57.138;-2.118;2022-11-03T10:18:46;9.40;1.00
29003;DHT22;16102;57.138;-2.118;2022-11-03T10:21:34;9.40;1.00
29003;DHT22;16102;57.138;-2.118;2022-11-03T10:24:01;9.50;1.00
29003;DHT22;16102;57.138;-2.118;2022-11-03T10:26:28;9.40;1.00
29003;DHT22;16102;57.138;-2.118;2022-11-03T10:29:03;9.60;1.00
29003;DHT22;16102;57.138;-2.118;2022-11-03T10:31:34;9.70;1.00
29003;DHT22;16102;57.138;-2.118;2022-11-03T10:34:01;9.80;1.00
29003;DHT22;16102;57.138;-2.118;2022-11-03T10:36:30;10.10;1.00
29003;DHT22;16102;57.138;-2.118;2022-11-03T10:38:58;10.50;1.00
29003;DHT22;16102;57.138;-2.118;2022-11-03T10:41:29;10.40;1.00
29003;DHT22;16102;57.138;-2.118;2022-11-03T10:44:18;10.30;1.00
29003;DHT22;16102;57.138;-2.118;2022-11-03T10:46:59;10.40;1.00
29003;DHT22;16102;57.138;-2.118;2022-11-03T10:49:31;10.60;1.00
29003;DHT22;16102;57.138;-2.118;2022-11-03T10:52:18;10.60;1.00
29003;DHT22;16102;57.138;-2.118;2022-11-03T10:54:47;11.00;1.00
29003;DHT22;16102;57.138;-2.118;2022-11-03T10:57:16;11.30;1.00
29003;DHT22;16102;57.138;-2.118;2022-11-03T10:59:45;11.50;1.00
29003;DHT22;16102;57.138;-2.118;2022-11-03T11:02:19;11.40;1.00
29003;DHT22;16102;57.138;-2.118;2022-11-03T11:04:49;11.40;1.00
29003;DHT22;16102;57.138;-2.118;2022-11-03T11:07:24;11.40;1.00
29003;DHT22;16102;57.138;-2.118;2022-11-03T11:09:52;11.00;1.00
29003;DHT22;16102;57.138;-2.118;2022-11-03T11:12:24;11.40;1.00
29003;DHT22;16102;57.138;-2.118;2022-11-03T11:15:01;11.40;1.00
29003;DHT22;16102;57.138;-2.118;2022-11-03T11:17:46;11.50;1.00
29003;DHT22;16102;57.138;-2.118;2022-11-03T11:20:34;11.60;1.00
29003;DHT22;16102;57.138;-2.118;2022-11-03T11:42:13;12.50;1.00
29003;DHT22;16102;57.138;-2.118;2022-11-03T11:47:24;12.50;1.00
29003;DHT22;16102;57.138;-2.118;2022-11-03T11:53:18;12.90;1.00
29003;DHT22;16102;57.138;-2.118;2022-11-03T11:55:57;12.90;1.00
29003;DHT22;16102;57.138;-2.118;2022-11-03T11:58:43;12.90;1.00
29003;DHT22;16102;57.138;-2.118;2022-11-03T12:01:33;13.50;1.00
29003;DHT22;16102;57.138;-2.118;2022-11-03T12:04:18;13.50;99.90
29003;DHT22;16102;57.138;-2.118;2022-11-03T12:06:46;13.80;99.90
29003;DHT22;16102;57.138;-2.118;2022-11-03T12:09:20;14.00;99.90
29003;DHT22;16102;57.138;-2.118;2022-11-03T12:11:49;14.60;99.90
29003;DHT22;16102;57.138;-2.118;2022-11-03T12:16:55;14.50;99.90
29003;DHT22;16102;57.138;-2.118;2022-11-03T12:19:43;15.40;99.90
29003;DHT22;16102;57.138;-2.118;2022-11-03T12:24:55;16.90;99.90
29003;DHT22;16102;57.138;-2.118;2022-11-03T12:29:55;15.70;99.90
29003;DHT22;16102;57.138;-2.118;2022-11-03T12:32:22;15.20;99.90
29003;DHT22;16102;57.138;-2.118;2022-11-03T12:35:00;15.60;99.90
29003;DHT22;16102;57.138;-2.118;2022-11-03T12:37:28;16.50;99.90
29003;DHT22;16102;57.138;-2.118;2022-11-03T12:39:55;17.20;99.90
29003;DHT22;16102;57.138;-2.118;2022-11-03T12:42:22;17.50;99.90
29003;DHT22;16102;57.138;-2.118;2022-11-03T12:44:51;18.20;99.90
29003;DHT22;16102;57.138;-2.118;2022-11-03T12:47:19;17.90;99.90
29003;DHT22;16102;57.138;-2.118;2022-11-03T12:49:46;18.70;99.90
29003;DHT22;16102;57.138;-2.118;2022-11-03T12:52:13;17.80;99.90
29003;DHT22;16102;57.138;-2.118;2022-11-03T12:54:40;18.50;99.90
29003;DHT22;16102;57.138;-2.118;2022-11-03T12:57:10;19.50;99.90
29003;DHT22;16102;57.138;-2.118;2022-11-03T12:59:37;20.80;99.90
29003;DHT22;16102;57.138;-2.118;2022-11-03T13:02:04;20.40;99.90
29003;DHT22;16102;57.138;-2.118;2022-11-03T13:04:31;19.60;99.90
29003;DHT22;16102;57.138;-2.118;2022-11-03T13:06:58;19.70;99.90
29003;DHT22;16102;57.138;-2.118;2022-11-03T13:09:28;20.20;99.90
29003;DHT22;16102;57.138;-2.118;2022-11-03T13:11:55;19.40;99.90
29003;DHT22;16102;57.138;-2.118;2022-11-03T13:14:41;20.40;99.90
29003;DHT22;16102;57.138;-2.118;2022-11-03T13:17:14;19.60;99.90
29003;DHT22;16102;57.138;-2.118;2022-11-03T13:19:41;20.50;99.90
29003;DHT22;16102;57.138;-2.118;2022-11-03T13:22:08;20.10;99.90
29003;DHT22;16102;57.138;-2.118;2022-11-03T13:24:35;21.80;99.90
29003;DHT22;16102;57.138;-2.118;2022-11-03T13:27:02;21.60;99.90
29003;DHT22;16102;57.138;-2.118;2022-11-03T13:29:29;22.30;99.90
29003;DHT22;16102;57.138;-2.118;2022-11-03T13:32:01;21.90;99.90
29003;DHT22;16102;57.138;-2.118;2022-11-03T13:34:29;21.70;99.90
29003;DHT22;16102;57.138;-2.118;2022-11-03T13:36:57;19.40;99.90
29003;DHT22;16102;57.138;-2.118;2022-11-03T13:39:24;18.80;99.90
29003;DHT22;16102;57.138;-2.118;2022-11-03T13:41:51;19.40;99.90
29003;DHT22;16102;57.138;-2.118;2022-11-03T13:44:18;18.40;99.90
29003;DHT22;16102;57.138;-2.118;2022-11-03T13:46:45;20.60;99.90
29003;DHT22;16102;57.138;-2.118;2022-11-03T13:49:12;21.10;99.90
29003;DHT22;16102;57.138;-2.118;2022-11-03T13:51:59;23.10;99.90
29003;DHT22;16102;57.138;-2.118;2022-11-03T13:54:26;23.90;99.90
29003;DHT22;16102;57.138;-2.118;2022-11-03T13:57:13;22.20;99.90
29003;DHT22;16102;57.138;-2.118;2022-11-03T14:00:01;22.40;99.90
29003;DHT22;16102;57.138;-2.118;2022-11-03T14:02:31;23.70;99.90
29003;DHT22;16102;57.138;-2.118;2022-11-03T14:05:18;24.50;99.90
29003;DHT22;16102;57.138;-2.118;2022-11-03T14:07:45;24.20;99.90
29003;DHT22;16102;57.138;-2.118;2022-11-03T14:10:12;21.10;99.90
29003;DHT22;16102;57.138;-2.118;2022-11-03T14:12:39;20.10;99.90
29003;DHT22;16102;57.138;-2.118;2022-11-03T14:15:09;19.90;99.90
29003;DHT22;16102;57.138;-2.118;2022-11-03T14:17:37;20.10;99.90
29003;DHT22;16102;57.138;-2.118;2022-11-03T14:20:07;20.20;99.90
29003;DHT22;16102;57.138;-2.118;2022-11-03T14:22:38;19.20;99.90
29003;DHT22;16102;57.138;-2.118;2022-11-03T14:25:05;19.90;99.90
29003;DHT22;16102;57.138;-2.118;2022-11-03T14:27:33;21.90;99.90
29003;DHT22;16102;57.138;-2.118;2022-11-03T14:30:00;21.30;99.90
29003;DHT22;16102;57.138;-2.118;2022-11-03T14:32:27;21.00;99.90
29003;DHT22;16102;57.138;-2.118;2022-11-03T14:34:54;21.40;99.90
29003;DHT22;16102;57.138;-2.118;2022-11-03T14:37:22;21.30;99.90
29003;DHT22;16102;57.138;-2.118;2022-11-03T14:39:51;21.80;99.90
29003;DHT22;16102;57.138;-2.118;2022-11-03T14:42:18;21.50;99.90
29003;DHT22;16102;57.138;-2.118;2022-11-03T14:44:45;19.70;99.90
29003;DHT22;16102;57.138;-2.118;2022-11-03T14:47:15;17.90;99.90
29003;DHT22;16102;57.138;-2.118;2022-11-03T14:49:44;16.40;99.90
29003;DHT22;16102;57.138;-2.118;2022-11-03T14:52:12;16.10;99.90
29003;DHT22;16102;57.138;-2.118;2022-11-03T14:54:39;15.80;99.90
29003;DHT22;16102;57.138;-2.118;2022-11-03T14:57:07;15.90;99.90
29003;DHT22;16102;57.138;-2.118;2022-11-03T14:59:35;15.60;99.90
29003;DHT22;16102;57.138;-2.118;2022-11-03T15:02:03;15.20;99.90
29003;DHT22;16102;57.138;-2.118;2022-11-03T15:04:31;15.30;99.90
29003;DHT22;16102;57.138;-2.118;2022-11-03T15:06:58;15.10;99.90
29003;DHT22;16102;57.138;-2.118;2022-11-03T15:09:26;15.20;99.90
29003;DHT22;16102;57.138;-2.118;2022-11-03T15:11:53;15.20;99.90
29003;DHT22;16102;57.138;-2.118;2022-11-03T15:14:20;14.50;99.90
29003;DHT22;16102;57.138;-2.118;2022-11-03T15:16:47;14.60;99.90
29003;DHT22;16102;57.138;-2.118;2022-11-03T15:19:14;14.40;99.90
29003;DHT22;16102;57.138;-2.118;2022-11-03T15:21:41;14.40;99.90
29003;DHT22;16102;57.138;-2.118;2022-11-03T15:24:08;14.20;99.90
29003;DHT22;16102;57.138;-2.118;2022-11-03T15:26:55;14.30;99.90
29003;DHT22;16102;57.138;-2.118;2022-11-03T15:29:22;14.20;99.90
29003;DHT22;16102;57.138;-2.118;2022-11-03T15:31:49;14.20;99.90
29003;DHT22;16102;57.138;-2.118;2022-11-03T15:34:17;14.10;99.90
29003;DHT22;16102;57.138;-2.118;2022-11-03T15:36:44;14.00;99.90
29003;DHT22;16102;57.138;-2.118;2022-11-03T15:39:11;13.70;99.90
29003;DHT22;16102;57.138;-2.118;2022-11-03T15:41:39;13.80;99.90
29003;DHT22;16102;57.138;-2.118;2022-11-03T15:44:06;13.90;99.90
29003;DHT22;16102;57.138;-2.118;2022-11-03T15:46:33;13.80;99.90
29003;DHT22;16102;57.138;-2.118;2022-11-03T15:49:02;13.60;99.90
29003;DHT22;16102;57.138;-2.118;2022-11-03T15:51:28;13.40;99.90
29003;DHT22;16102;57.138;-2.118;2022-11-03T15:53:55;13.30;99.90
29003;DHT22;16102;57.138;-2.118;2022-11-03T15:56:25;13.30;99.90
29003;DHT22;16102;57.138;-2.118;2022-11-03T15:58:53;13.30;99.90
29003;DHT22;16102;57.138;-2.118;2022-11-03T16:01:20;13.30;99.90
29003;DHT22;16102;57.138;-2.118;2022-11-03T16:03:48;13.10;99.90
29003;DHT22;16102;57.138;-2.118;2022-11-03T16:06:15;13.10;99.90
29003;DHT22;16102;57.138;-2.118;2022-11-03T16:08:42;13.10;99.90
29003;DHT22;16102;57.138;-2.118;2022-11-03T16:11:09;13.00;99.90
29003;DHT22;16102;57.138;-2.118;2022-11-03T16:13:36;12.80;99.90
29003;DHT22;16102;57.138;-2.118;2022-11-03T16:16:03;12.80;99.90
29003;DHT22;16102;57.138;-2.118;2022-11-03T16:18:31;12.70;99.90
29003;DHT22;16102;57.138;-2.118;2022-11-03T16:20:58;12.70;99.90
29003;DHT22;16102;57.138;-2.118;2022-11-03T16:23:25;12.60;99.90
29003;DHT22;16102;57.138;-2.118;2022-11-03T16:25:53;12.60;99.90
29003;DHT22;16102;57.138;-2.118;2022-11-03T16:28:20;12.70;99.90
29003;DHT22;16102;57.138;-2.118;2022-11-03T16:30:47;12.60;99.90
29003;DHT22;16102;57.138;-2.118;2022-11-03T16:33:20;12.50;99.90
29003;DHT22;16102;57.138;-2.118;2022-11-03T16:35:47;12.30;99.90
29003;DHT22;16102;57.138;-2.118;2022-11-03T16:38:14;12.20;99.90
29003;DHT22;16102;57.138;-2.118;2022-11-03T16:40:41;12.20;99.90
29003;DHT22;16102;57.138;-2.118;2022-11-03T16:43:10;12.20;99.90
29003;DHT22;16102;57.138;-2.118;2022-11-03T16:45:37;12.20;99.90
29003;DHT22;16102;57.138;-2.118;2022-11-03T16:48:05;12.20;99.90
29003;DHT22;16102;57.138;-2.118;2022-11-03T16:50:33;12.10;99.90
29003;DHT22;16102;57.138;-2.118;2022-11-03T16:53:00;12.10;99.90
29003;DHT22;16102;57.138;-2.118;2022-11-03T16:55:27;11.90;99.90
29003;DHT22;16102;57.138;-2.118;2022-11-03T16:57:54;11.70;99.90
29003;DHT22;16102;57.138;-2.118;2022-11-03T17:00:21;11.40;99.90
29003;DHT22;16102;57.138;-2.118;2022-11-03T17:02:49;11.30;99.90
29003;DHT22;16102;57.138;-2.118;2022-11-03T17:05:17;11.30;99.90